Latest Weather Observations for Cape Grim

IDT60801

Issued at 3:41 pm EST Wednesday 20 June 2018 (issued every 10 minutes, with the page automatically refreshed every 10 minutes)

About weather observations | Map of weather stations | Latest weather observations for TAS | Other Formats
Station Details ID: 091331 Name: CAPE GRIM Lat: -40.68 Lon: 144.69 Height: 86.0 m
Data from the previous 72 hours. | See also: Recent months at Cape Grim
Date/Time
EST
Temp
°C
App
Temp
°C
Dew
Point
°C
Rel
Hum
%
Delta-T
°C
Wind Press
QNH
hPa
Press
MSL
hPa
Rain since
9am
mm
Dir  Spd
km/h
Gust
km/h
Spd
kts
Gust
kts
20/03:30pm 11.4 5.7 6.5 72 2.3 N 26 33 14 18 1024.8 1024.9 0.0
20/03:00pm 11.9 6.2 6.8 71 2.4 N 26 33 14 18 1024.7 1024.8 0.0
20/02:30pm 11.6 5.0 6.1 69 2.6 N 30 37 16 20 1024.8 1024.9 0.0
20/02:00pm 11.7 6.3 6.2 69 2.6 N 24 33 13 18 1024.8 1024.9 0.0
20/01:30pm 11.9 5.3 6.2 68 2.7 N 30 35 16 19 1024.9 1025.0 0.0
20/01:00pm 11.9 5.4 6.6 70 2.5 N 30 39 16 21 1025.1 1025.2 0.0
20/12:30pm 11.7 5.6 6.4 70 2.5 N 28 35 15 19 1025.3 1025.4 0.0
20/12:00pm 11.6 5.6 6.9 73 2.2 NNW 28 35 15 19 1025.6 1025.7 0.0
20/11:30am 11.5 5.0 6.4 71 2.4 N 30 37 16 20 1025.8 1025.9 0.0
20/11:00am 11.8 6.1 6.5 70 2.5 N 26 35 14 19 1026.2 1026.3 0.0
20/10:30am 11.5 5.3 6.0 69 2.6 N 28 33 15 18 1026.2 1026.3 0.0
20/10:00am 11.6 5.4 6.3 70 2.5 N 28 35 15 19 1026.3 1026.4 0.0
20/09:30am 11.4 5.3 6.7 73 2.2 N 28 35 15 19 1026.2 1026.3 0.0
20/09:00am 10.9 5.7 7.2 78 1.8 N 24 30 13 16 1026.2 1026.3 0.0
20/08:30am 10.6 5.6 8.2 85 1.2 NNE 24 32 13 17 1026.3 1026.4 0.0
20/08:00am 10.2 5.6 9.7 97 0.3 NNE 24 30 13 16 1026.0 1026.1 0.0
20/07:30am 10.4 5.5 9.8 96 0.3 NNE 26 30 14 16 1025.8 1025.9 0.0
20/07:00am 10.7 4.8 9.1 90 0.8 NNE 30 35 16 19 1025.7 1025.8 0.0
20/06:30am 10.5 4.9 8.9 90 0.8 NNE 28 35 15 19 1025.6 1025.7 0.0
20/06:00am 10.9 4.5 8.7 86 1.1 NNE 32 37 17 20 1025.7 1025.8 0.0
20/05:30am 10.9 4.5 8.5 85 1.2 NNE 32 37 17 20 1025.5 1025.6 0.0
20/05:00am 11.2 4.2 8.6 84 1.3 NNE 35 41 19 22 1025.4 1025.5 0.0
20/04:30am 11.1 4.4 8.3 83 1.4 NNE 33 43 18 23 1025.5 1025.6 0.0
20/04:00am 11.3 4.8 8.3 82 1.5 NNE 32 39 17 21 1025.7 1025.8 0.0
20/03:30am 11.0 4.9 8.2 83 1.4 NNE 30 35 16 19 1025.9 1026.0 0.0
20/03:00am 11.5 5.6 9.1 85 1.2 NNE 30 35 16 19 1026.0 1026.1 0.0
20/02:30am 11.4 4.7 9.8 90 0.8 NE 35 41 19 22 1025.9 1026.0 0.0
20/02:00am 11.3 5.0 9.7 90 0.8 NE 33 41 18 22 1026.0 1026.1 0.0
20/01:30am 11.4 4.7 9.5 88 1.0 NE 35 46 19 25 1026.2 1026.3 0.0
20/01:00am 11.3 4.0 8.9 85 1.2 NE 37 46 20 25 1026.2 1026.3 0.0
20/12:30am 11.3 3.6 8.7 84 1.3 NE 39 46 21 25 1026.2 1026.3 0.0
20/12:00am 11.3 3.5 8.2 81 1.5 NE 39 52 21 28 1026.3 1026.4 0.0
 
Date/Time
EST
Temp
°C
App
Temp
°C
Dew
Point
°C
Rel
Hum
%
Delta-T
°C
Wind Press
QNH
hPa
Press
MSL
hPa
Rain since
9am
mm
Dir  Spd
km/h
Gust
km/h
Spd
kts
Gust
kts
19/11:30pm 11.2 3.4 8.2 82 1.5 NE 39 54 21 29 1026.5 1026.6 0.0
19/11:00pm 11.0 2.3 7.9 81 1.5 NE 43 52 23 28 1026.4 1026.5 0.0
19/10:30pm 11.1 2.4 7.8 80 1.6 NE 43 52 23 28 1026.7 1026.8 0.0
19/10:00pm 11.0 3.0 7.5 79 1.7 NE 39 46 21 25 1027.1 1027.2 0.0
19/09:30pm 10.5 2.8 7.0 79 1.7 NE 37 46 20 25 1027.2 1027.3 0.0
19/09:00pm 10.3 2.2 7.0 80 1.6 ENE 39 46 21 25 1027.1 1027.2 0.0
19/08:30pm 10.1 2.3 6.8 80 1.6 ENE 37 44 20 24 1026.9 1027.0 0.0
19/08:00pm 10.0 3.5 8.8 92 0.6 ENE 33 39 18 21 1027.3 1027.4 0.0
19/07:30pm 9.5 4.5 9.4 99 0.0 ENE 26 32 14 17 1027.8 1027.9 0.0
19/07:00pm 9.6 4.1 9.1 97 0.2 ENE 28 33 15 18 1027.8 1027.9 0.0
19/06:30pm 9.6 3.7 9.1 97 0.2 ENE 30 37 16 20 1027.7 1027.8 0.0
19/06:00pm 9.3 4.6 9.2 99 0.0 ENE 24 30 13 16 1027.8 1027.9 0.0
19/05:30pm 9.1 5.0 8.6 97 0.2 NE 20 24 11 13 1027.8 1027.9 0.0
19/05:00pm 9.3 4.4 7.1 86 1.0 NE 22 26 12 14 1028.0 1028.1 0.0
19/04:30pm 10.0 3.7 7.6 85 1.2 NE 30 39 16 21 1028.0 1028.1 0.0
19/04:00pm 10.3 4.0 7.2 81 1.5 NE 30 37 16 20 1028.1 1028.2 0.0
19/03:30pm 10.9 5.6 6.6 75 2.0 NE 24 32 13 17 1028.3 1028.4 0.0
19/03:00pm 11.0 5.7 6.6 74 2.1 NE 24 30 13 16 1028.4 1028.5 0.0
19/02:30pm 11.3 5.6 6.6 73 2.2 NE 26 33 14 18 1028.4 1028.5 0.0
19/02:00pm 11.2 4.1 6.3 72 2.3 NE 33 43 18 23 1028.1 1028.2 0.0
19/01:30pm 11.7 4.8 6.6 71 2.4 NE 32 37 17 20 1027.8 1027.9 0.0
19/01:00pm 11.6 5.5 6.7 72 2.3 NE 28 37 15 20 1028.4 1028.5 0.0
19/12:30pm 11.3 4.3 6.0 70 2.5 NE 32 39 17 21 1028.4 1028.5 0.0
19/12:00pm 11.3 5.3 7.0 75 2.0 NE 28 35 15 19 1028.6 1028.7 0.0
19/11:30am 11.0 4.2 6.7 75 2.0 ENE 32 39 17 21 1028.8 1028.9 0.0
19/11:00am 10.7 6.8 9.3 91 0.7 E 20 24 11 13 1029.3 1029.5 0.0
19/10:30am 8.6 3.7 6.9 89 0.8 E 22 30 12 16 1029.4 1029.6 0.0
19/10:00am 7.7 3.0 7.6 99 0.0 E 22 24 12 13 1029.8 1029.9 0.0
19/09:30am 6.1 1.3 5.4 95 0.3 E 20 24 11 13 1030.1 1030.2 0.0
19/09:00am 5.2 -0.5 4.8 97 0.2 E 24 26 13 14 1029.9 1030.0 0.0
19/08:30am 4.7 -1.5 4.4 98 0.1 E 26 28 14 15 1029.6 1029.8 0.0
19/08:00am 4.5 -0.9 4.4 99 0.0 E 22 24 12 13 1029.6 1029.8 0.0
19/07:30am 4.6 -0.8 4.6 100 0.0 ESE 22 24 12 13 1029.6 1029.8 0.0
19/07:00am 4.8 -0.5 4.8 100 0.0 ESE 22 24 12 13 1029.5 1029.7 0.0
19/06:30am 5.2 -0.4 5.2 100 0.0 E 24 28 13 15 1029.2 1029.4 0.0
19/06:00am 5.0 -1.1 5.0 100 0.0 ESE 26 28 14 15 1029.1 1029.3 0.0
19/05:30am 5.1 -0.6 5.1 100 0.0 ESE 24 26 13 14 1029.1 1029.3 0.0
19/05:00am 5.6 0.4 5.6 100 0.0 ESE 22 24 12 13 1029.1 1029.3 0.0
19/04:30am 5.2 0.3 5.2 100 0.0 ESE 20 24 11 13 1028.7 1028.8 0.0
19/04:00am 5.0 -0.3 5.0 100 0.0 E 22 24 12 13 1028.5 1028.6 0.0
19/03:30am 5.3 0.4 5.3 100 0.0 E 20 22 11 12 1028.7 1028.8 0.0
19/03:00am 4.8 -0.2 4.8 100 0.0 E 20 24 11 13 1028.8 1028.9 0.0
19/02:30am 4.4 -0.6 4.4 100 0.0 E 20 22 11 12 1028.6 1028.7 0.0
19/02:00am 5.0 0.2 4.9 99 0.0 ENE 19 20 10 11 1028.3 1028.4 0.0
19/01:30am 4.7 -0.7 4.7 100 0.0 ENE 22 24 12 13 1028.1 1028.2 0.0
19/01:00am 4.4 -0.7 4.1 98 0.1 E 20 24 11 13 1028.1 1028.2 0.0
19/12:30am 4.6 -0.5 2.8 88 0.7 E 19 20 10 11 1028.3 1028.4 0.0
19/12:00am 4.9 -0.4 2.8 86 0.9 ESE 20 22 11 12 1028.5 1028.6 0.0
 
Date/Time
EST
Temp
°C
App
Temp
°C
Dew
Point
°C
Rel
Hum
%
Delta-T
°C
Wind Press
QNH
hPa
Press
MSL
hPa
Rain since
9am
mm
Dir  Spd
km/h
Gust
km/h
Spd
kts
Gust
kts
18/11:30pm 5.3 -0.4 3.0 85 1.0 ESE 22 24 12 13 1028.4 1028.5 0.0
18/11:00pm 6.2 0.6 3.5 83 1.1 SE 22 26 12 14 1028.3 1028.4 0.0
18/10:30pm 6.6 1.0 3.6 81 1.3 SE 22 26 12 14 1028.4 1028.5 0.0
18/10:00pm 7.3 1.8 3.9 79 1.5 SE 22 28 12 15 1028.4 1028.5 0.0
18/09:30pm 7.4 1.9 4.0 79 1.5 SE 22 28 12 15 1028.3 1028.4 0.0
18/09:00pm 7.6 2.7 4.2 79 1.5 SE 19 26 10 14 1028.4 1028.5 0.0
18/08:30pm 7.9 3.4 4.3 78 1.6 SE 17 22 9 12 1028.4 1028.5 0.0
18/08:00pm 8.1 3.0 4.3 77 1.7 SE 20 26 11 14 1028.3 1028.4 0.0
18/07:30pm 8.4 3.6 4.6 77 1.7 SE 19 28 10 15 1028.3 1028.4 0.0
18/07:00pm 8.3 4.7 5.1 80 1.4 SSE 13 19 7 10 1028.1 1028.2 0.0
18/06:30pm 8.4 4.5 5.2 80 1.4 S 15 20 8 11 1027.9 1028.0 0.0
18/06:00pm 8.8 5.0 5.7 81 1.4 S 15 20 8 11 1027.6 1027.7 0.0
18/05:30pm 9.5 5.3 5.9 78 1.7 S 17 24 9 13 1027.4 1027.5 0.0
18/05:00pm 10.0 4.9 6.2 77 1.8 SSW 22 30 12 16 1027.1 1027.2 0.0
18/04:30pm 10.1 6.9 4.9 70 2.4 S 11 15 6 8 1027.0 1027.1 0.0
18/04:00pm 10.8 7.1 4.7 66 2.7 S 13 15 7 8 1026.9 1027.0 0.0
18/03:30pm 10.9 6.5 4.6 65 2.9 SSE 17 22 9 12 1026.5 1026.6 0.0
18/03:00pm 11.2 6.8 4.7 64 2.9 SSE 17 26 9 14 1026.6 1026.7 0.0
18/02:30pm 11.2 5.7 4.2 62 3.1 SSE 22 33 12 18 1026.3 1026.4 0.0
18/02:00pm 11.2 5.5 4.9 65 2.9 SSE 24 35 13 19 1026.3 1026.4 0.0
18/01:30pm 10.9 3.6 4.4 64 2.9 S 32 43 17 23 1026.2 1026.3 0.0
18/01:00pm 10.7 3.3 4.2 64 2.9 SSE 32 43 17 23 1026.4 1026.5 0.0
18/12:30pm 10.6 3.6 4.3 65 2.8 SSE 30 39 16 21 1026.6 1026.7 0.0
18/12:00pm 10.4 5.6 4.5 67 2.6 S 19 26 10 14 1026.6 1026.7 0.0
18/11:30am 9.6 4.1 3.8 67 2.5 SSE 22 32 12 17 1027.0 1027.1 0.0
18/11:00am 9.1 3.9 3.5 68 2.4 SSE 20 30 11 16 1027.0 1027.1 0.0
18/10:30am 8.7 3.5 3.7 71 2.2 SSE 20 28 11 15 1027.0 1027.1 0.0
18/10:00am 7.6 0.7 2.3 69 2.2 SSE 28 37 15 20 1026.5 1026.6 0.0
18/09:30am 7.0 -0.8 1.9 70 2.1 S 32 44 17 24 1026.2 1026.3 0.0
18/09:00am 6.8 -0.9 2.3 73 1.8 S 32 50 17 27 1026.0 1026.1 0.0
18/08:35am 6.6 -1.3 2.1 73 1.8 S 33 52 18 28 1025.7 1025.8 0.0
18/08:30am 6.6 -1.7 2.1 73 1.8 S 35 52 19 28 1025.6 1025.7 0.0
18/08:29am 6.5 -1.4 2.0 73 1.8 S 33 52 18 28 1025.6 1025.7 0.0
18/08:00am 6.5 -0.9 2.0 73 1.8 S 30 39 16 21 1025.4 1025.5 0.0
18/07:30am 6.9 -1.0 2.2 72 1.9 S 33 48 18 26 1024.8 1024.9 0.0
18/07:00am 6.6 -0.4 2.1 73 1.8 S 28 39 15 21 1024.5 1024.6 0.0
18/06:30am 6.7 -0.7 1.8 71 2.0 S 30 46 16 25 1024.2 1024.3 0.0
18/06:00am 7.1 -0.7 1.6 68 2.2 S 32 48 17 26 1023.9 1024.0 0.0
18/05:33am 7.3 -0.1 1.8 68 2.3 S 30 48 16 26 1023.6 1023.7 0.0
18/05:30am 7.2 -0.6 1.9 69 2.2 S 32 46 17 25 1023.6 1023.7 0.0
18/05:00am 7.9 -0.6 3.0 71 2.1 S 37 59 20 32 1023.4 1023.5 0.0
18/04:30am 7.7 -0.8 3.0 72 2.0 S 37 57 20 31 1023.3 1023.4 0.0
18/04:00am 7.9 -1.0 3.0 71 2.1 S 39 61 21 33 1023.2 1023.3 0.0
18/03:33am 7.8 -0.7 2.9 71 2.1 S 37 59 20 32 1022.9 1023.0 0.0
18/03:30am 7.7 -0.5 2.8 71 2.1 S 35 52 19 28 1023.0 1023.1 0.0
18/03:02am 8.0 -0.6 2.5 68 2.3 S 37 56 20 30 1023.0 1023.1 0.0
18/03:00am 7.9 -1.1 2.4 68 2.3 S 39 56 21 30 1023.1 1023.2 0.0
18/02:30am 8.2 -1.6 2.4 67 2.4 S 43 65 23 35 1022.9 1023.0 0.0
18/02:12am 7.9 -1.4 2.8 70 2.2 S 41 59 22 32 1022.8 1022.9 0.0
18/02:00am 7.8 -0.3 3.1 72 2.0 S 35 52 19 28 1022.8 1022.9 0.0
18/01:55am 7.6 -0.1 3.3 74 1.8 S 33 52 18 28 1023.0 1023.1 0.0
18/01:30am 7.8 -0.2 3.7 75 1.8 S 35 46 19 25 1023.0 1023.1 0.0
18/01:00am 8.1 0.5 3.8 74 1.9 S 33 44 18 24 1023.2 1023.3 0.0
18/12:35am 8.1 -0.7 3.8 74 1.9 SSW 39 57 21 31 1022.8 1022.9 0.0
18/12:30am 8.3 -1.2 4.1 75 1.8 S 43 57 23 31 1022.7 1022.8 0.0
18/12:05am 7.9 -0.4 4.3 78 1.6 S 37 56 20 30 1022.8 1022.9 0.0
18/12:00am 8.1 0.2 4.5 78 1.6 S 35 44 19 24 1023.0 1023.1 0.0
 
Date/Time
EST
Temp
°C
App
Temp
°C
Dew
Point
°C
Rel
Hum
%
Delta-T
°C
Wind Press
QNH
hPa
Press
MSL
hPa
Rain since
9am
mm
Dir  Spd
km/h
Gust
km/h
Spd
kts
Gust
kts
17/11:30pm 8.3 1.8 4.9 79 1.5 SSE 28 39 15 21 1023.2 1023.3 0.0
17/11:00pm 8.7 2.7 5.1 78 1.6 S 26 41 14 22 1022.7 1022.8 0.0
17/10:30pm 8.6 1.4 5.2 79 1.5 S 32 41 17 22 1022.3 1022.4 0.0
17/10:17pm 8.7 0.6 5.4 80 1.5 S 37 57 20 31 1022.1 1022.2 0.0
17/10:00pm 8.9 0.5 5.5 79 1.5 S 39 50 21 27 1021.9 1022.0 0.0
17/09:37pm 8.9 2.2 5.8 81 1.4 S 30 48 16 26 1022.0 1022.1 0.0
17/09:30pm 9.2 2.0 6.1 81 1.4 S 33 48 18 26 1022.0 1022.1 0.0
17/09:00pm 9.2 -0.1 6.1 81 1.4 SSW 44 65 24 35 1021.4 1021.5 0.0
17/08:30pm 9.6 -0.1 6.0 78 1.7 S 46 67 25 36 1020.8 1020.9 0.0
17/08:00pm 9.9 -1.2 6.4 79 1.6 SSW 54 72 29 39 1020.2 1020.3 0.0
17/07:30pm 9.9 -1.1 7.0 82 1.4 SSW 54 72 29 39 1019.9 1020.0 0.0
17/07:00pm 10.0 -1.1 7.8 86 1.1 SSW 56 74 30 40 1019.5 1019.6 0.0
17/06:30pm 10.0 -1.4 7.4 84 1.2 SSW 57 82 31 44 1018.9 1018.9 0.0
17/06:02pm 10.0 -0.4 7.6 85 1.2 SSW 52 70 28 38 1018.4 1018.4 0.0
17/06:00pm 9.9 -0.6 7.5 85 1.1 SSW 52 69 28 37 1018.4 1018.4 0.0
17/05:30pm 9.5 0.2 7.6 88 0.9 SSW 46 65 25 35 1017.9 1017.9 0.0
17/05:00pm 9.9 -1.2 8.2 89 0.8 SSW 56 78 30 42 1017.0 1017.1 0.0
17/04:30pm 9.6 -1.2 9.1 97 0.2 SSW 56 74 30 40 1016.7 1016.8 0.0
17/04:06pm 9.9 -1.8 7.8 87 1.0 SSW 59 80 32 43 1016.2 1016.3 0.0
17/04:00pm 10.2 -1.1 8.0 86 1.1 SSW 57 74 31 40 1016.2 1016.3 0.0

Other Formats:

Comma delimited format used in spreadsheet applications
http://www.bom.gov.au/fwo/IDT60801/IDT60801.95954.axf

JavaScript Object Notation format (JSON) in row-major order
http://www.bom.gov.au/fwo/IDT60801/IDT60801.95954.json